Terminal Aerodrome Forecast
Issued by NWS Topeka, KS

Home | Current Version | Previous Version | Text Only | Print | Product List | Glossary Off
Versions: 1 2 3 4 5 6 7 8 9 10 11 12 13 14 15 16 17 18 19 20 21 22 23 24

000
FTUS43 KTOP 052300
TAFTOP
TAF
KTOP 052338Z 0600/0624 15013G20KT P6SM SCT050 OVC250
      TEMPO 0600/0601 VRB25G40KT 3SM TSRA SCT020 BKN040CB
     FM060300 14009KT P6SM VCSH SCT050 BKN120
     FM060600 15013KT P6SM -SHRA VCTS OVC050CB
      TEMPO 0608/0612 3SM SHRA BR BKN025
     FM061600 17015G22KT P6SM VCSH BKN025
     FM061800 16018G30KT P6SM SCT025 BKN050=

USA.gov is the U.S. government's official web portal to all federal, state and local government web resources and services.